메인 페이지
METAR-TAF:

METAR-TAF

공항 :

로스앤젤레스 국제공항

로스앤젤레스, 캘리포니아, 미국

위도: 33-56-17N, 경도: 118-23-20W, 고도: 38m

현재 날씨관측

예보는 27분 전, 16:53시(UTC)에 발표되었습니다.
5kt
온도 16°C
습도 82%
기압 1016 hPa
시정: 4.0km
고도 700ft 상공 구름 많음
고도 1400ft 상공 흐림
연무

METAR: KLAX 141653Z 09005KT 2 1/2SM HZ BKN007 OVC014 16/13 A3000 RMK AO2 SLP156 T01610128

시각: 09:20 (17:20 UTC)

예보

예보는 2 시간 20분 전, 15:00시(UTC)에 발표되었습니다.
예보 대상 시간: 14일 15시부터 15일 18시까지 (UTC)
5kt
시정: 3.2km
고도 700ft 상공 흐림
박무
14일 1800시부터 (UTC)
서남서8kt
시정: 8.0km
고도 1200ft 상공 흐림
박무
14일 2000시부터 (UTC)
서남서10kt
시정: 9.7km
고도 1700ft 상공 흐림
박무
14일 2200시부터 (UTC)
14kt, 순간 최대 풍속 22kt
시정: 10km
고도 2200ft 상공 구름 보통
15일 0300시부터 (UTC)
서북서12kt
시정: 10km
맑음
15일 0700시부터 (UTC)
북북서12kt
시정: 10km
맑음
15일 1500시부터 (UTC)
북서7kt
시정: 10km
맑음

TAF: KLAX 141500Z 1415/1518 08005KT 2SM BR OVC007 FM141800 24008KT 5SM BR OVC012 FM142000 25010KT 6SM BR OVC017 FM142200 26014G22KT P6SM SCT022 FM150300 30012KT P6SM SKC FM150700 33012KT P6SM SKC FM151500 32007KT P6SM SKC

4,000개 이상의 공항 관측 자료 및 예보 (METAR 및 TAF 보고).

지도상에서 검색 가능한 기상관측소가 노란 점과 빨간 점으로 표시되어 있습니다.

기상관측소 명을 보려면 표시 위로 마우스를 이동하세요.

날씨 관측과 예보를 보려면 클릭하세요.

지도 변경 : 확대하려면 엑스 표시가 있는 녹색 버튼, 축소하려면 빼기 표시가 있는 녹색 버튼, 다음 페이지의 지도를 보려면 녹색 화살표를 클릭하세요.


METAR-TAF: